sensor_id;sensor_type;location;lat;lon;timestamp;temperature;humidity
72128;DHT22;60000;51.030;7.024;2024-03-25T00:00:32;6.51;81.09
72128;DHT22;60000;51.030;7.024;2024-03-25T00:02:59;6.50;81.09
72128;DHT22;60000;51.030;7.024;2024-03-25T00:05:24;6.45;80.87
72128;DHT22;60000;51.030;7.024;2024-03-25T00:07:51;6.44;81.13
72128;DHT22;60000;51.030;7.024;2024-03-25T00:10:17;6.43;81.15
72128;DHT22;60000;51.030;7.024;2024-03-25T00:12:42;6.40;81.06
72128;DHT22;60000;51.030;7.024;2024-03-25T00:15:08;6.33;81.29
72128;DHT22;60000;51.030;7.024;2024-03-25T00:17:34;6.36;81.48
72128;DHT22;60000;51.030;7.024;2024-03-25T00:19:59;6.33;81.55
72128;DHT22;60000;51.030;7.024;2024-03-25T00:22:24;6.34;81.60
72128;DHT22;60000;51.030;7.024;2024-03-25T00:24:51;6.33;81.64
72128;DHT22;60000;51.030;7.024;2024-03-25T00:27:17;6.26;81.48
72128;DHT22;60000;51.030;7.024;2024-03-25T00:29:42;6.23;81.79
72128;DHT22;60000;51.030;7.024;2024-03-25T00:32:08;6.19;81.94
72128;DHT22;60000;51.030;7.024;2024-03-25T00:34:34;6.19;82.07
72128;DHT22;60000;51.030;7.024;2024-03-25T00:37:00;6.20;82.05
72128;DHT22;60000;51.030;7.024;2024-03-25T00:39:26;6.32;82.12
72128;DHT22;60000;51.030;7.024;2024-03-25T00:41:52;6.27;82.31
72128;DHT22;60000;51.030;7.024;2024-03-25T00:44:18;6.32;82.31
72128;DHT22;60000;51.030;7.024;2024-03-25T00:46:43;6.30;82.16
72128;DHT22;60000;51.030;7.024;2024-03-25T00:49:09;6.32;82.55
72128;DHT22;60000;51.030;7.024;2024-03-25T00:51:35;6.29;82.74
72128;DHT22;60000;51.030;7.024;2024-03-25T00:54:01;6.29;82.69
72128;DHT22;60000;51.030;7.024;2024-03-25T00:56:27;6.22;83.21
72128;DHT22;60000;51.030;7.024;2024-03-25T00:58:52;6.20;83.34
72128;DHT22;60000;51.030;7.024;2024-03-25T01:01:17;6.20;83.55
72128;DHT22;60000;51.030;7.024;2024-03-25T01:03:43;6.29;83.52
72128;DHT22;60000;51.030;7.024;2024-03-25T01:06:08;6.33;83.12
72128;DHT22;60000;51.030;7.024;2024-03-25T01:08:34;6.30;83.38
72128;DHT22;60000;51.030;7.024;2024-03-25T01:10:59;6.29;83.25
72128;DHT22;60000;51.030;7.024;2024-03-25T01:13:25;6.23;83.27
72128;DHT22;60000;51.030;7.024;2024-03-25T01:15:51;6.14;83.40
72128;DHT22;60000;51.030;7.024;2024-03-25T01:18:17;6.14;83.73
72128;DHT22;60000;51.030;7.024;2024-03-25T01:20:42;6.10;83.67
72128;DHT22;60000;51.030;7.024;2024-03-25T01:23:07;6.10;83.70
72128;DHT22;60000;51.030;7.024;2024-03-25T01:25:33;6.07;83.96
72128;DHT22;60000;51.030;7.024;2024-03-25T01:27:58;6.05;83.99
72128;DHT22;60000;51.030;7.024;2024-03-25T01:30:23;6.01;84.16
72128;DHT22;60000;51.030;7.024;2024-03-25T01:32:48;6.02;84.16
72128;DHT22;60000;51.030;7.024;2024-03-25T01:35:14;5.99;84.32
72128;DHT22;60000;51.030;7.024;2024-03-25T01:37:41;5.98;84.29
72128;DHT22;60000;51.030;7.024;2024-03-25T01:40:08;6.02;84.19
72128;DHT22;60000;51.030;7.024;2024-03-25T01:42:36;6.05;84.01
72128;DHT22;60000;51.030;7.024;2024-03-25T01:45:01;6.13;83.71
72128;DHT22;60000;51.030;7.024;2024-03-25T01:47:28;6.12;83.90
72128;DHT22;60000;51.030;7.024;2024-03-25T01:49:54;6.03;83.79
72128;DHT22;60000;51.030;7.024;2024-03-25T01:52:22;5.99;83.80
72128;DHT22;60000;51.030;7.024;2024-03-25T01:54:48;6.05;84.03
72128;DHT22;60000;51.030;7.024;2024-03-25T01:57:15;5.99;83.91
72128;DHT22;60000;51.030;7.024;2024-03-25T01:59:41;5.93;83.88
72128;DHT22;60000;51.030;7.024;2024-03-25T02:02:07;5.95;83.83
72128;DHT22;60000;51.030;7.024;2024-03-25T02:04:32;5.91;83.87
72128;DHT22;60000;51.030;7.024;2024-03-25T02:06:57;5.92;83.92
72128;DHT22;60000;51.030;7.024;2024-03-25T02:09:24;5.92;83.98
72128;DHT22;60000;51.030;7.024;2024-03-25T02:11:51;5.88;83.94
72128;DHT22;60000;51.030;7.024;2024-03-25T02:14:16;5.85;83.85
72128;DHT22;60000;51.030;7.024;2024-03-25T02:16:41;5.85;83.77
72128;DHT22;60000;51.030;7.024;2024-03-25T02:19:07;5.91;83.48
72128;DHT22;60000;51.030;7.024;2024-03-25T02:21:34;5.92;83.55
72128;DHT22;60000;51.030;7.024;2024-03-25T02:23:59;5.88;83.44
72128;DHT22;60000;51.030;7.024;2024-03-25T02:26:25;5.86;83.48
72128;DHT22;60000;51.030;7.024;2024-03-25T02:28:50;5.82;83.78
72128;DHT22;60000;51.030;7.024;2024-03-25T02:31:16;5.76;83.96
72128;DHT22;60000;51.030;7.024;2024-03-25T02:33:41;5.79;83.93
72128;DHT22;60000;51.030;7.024;2024-03-25T02:36:07;5.78;83.86
72128;DHT22;60000;51.030;7.024;2024-03-25T02:38:33;5.78;83.86
72128;DHT22;60000;51.030;7.024;2024-03-25T02:40:58;5.75;83.97
72128;DHT22;60000;51.030;7.024;2024-03-25T02:43:25;5.75;84.04
72128;DHT22;60000;51.030;7.024;2024-03-25T02:45:50;5.76;83.83
72128;DHT22;60000;51.030;7.024;2024-03-25T02:48:15;5.73;83.88
72128;DHT22;60000;51.030;7.024;2024-03-25T02:50:41;5.78;83.97
72128;DHT22;60000;51.030;7.024;2024-03-25T02:53:06;5.76;84.01
72128;DHT22;60000;51.030;7.024;2024-03-25T02:55:32;5.78;83.81
72128;DHT22;60000;51.030;7.024;2024-03-25T02:57:57;5.75;83.94
72128;DHT22;60000;51.030;7.024;2024-03-25T03:00:22;5.73;84.02
72128;DHT22;60000;51.030;7.024;2024-03-25T03:02:48;5.81;83.52
72128;DHT22;60000;51.030;7.024;2024-03-25T03:05:13;5.78;83.59
72128;DHT22;60000;51.030;7.024;2024-03-25T03:07:39;5.73;83.77
72128;DHT22;60000;51.030;7.024;2024-03-25T03:10:04;5.72;83.78
72128;DHT22;60000;51.030;7.024;2024-03-25T03:12:30;5.72;83.78
72128;DHT22;60000;51.030;7.024;2024-03-25T03:14:55;5.69;83.94
72128;DHT22;60000;51.030;7.024;2024-03-25T03:17:21;5.69;83.96
72128;DHT22;60000;51.030;7.024;2024-03-25T03:19:46;5.68;84.00
72128;DHT22;60000;51.030;7.024;2024-03-25T03:22:12;5.66;83.98
72128;DHT22;60000;51.030;7.024;2024-03-25T03:24:37;5.64;84.12
72128;DHT22;60000;51.030;7.024;2024-03-25T03:27:03;5.61;84.08
72128;DHT22;60000;51.030;7.024;2024-03-25T03:29:28;5.62;84.13
72128;DHT22;60000;51.030;7.024;2024-03-25T03:31:54;5.62;84.04
72128;DHT22;60000;51.030;7.024;2024-03-25T03:34:20;5.58;84.08
72128;DHT22;60000;51.030;7.024;2024-03-25T03:36:45;5.59;84.17
72128;DHT22;60000;51.030;7.024;2024-03-25T03:39:11;5.62;84.27
72128;DHT22;60000;51.030;7.024;2024-03-25T03:41:36;5.62;84.06
72128;DHT22;60000;51.030;7.024;2024-03-25T03:44:02;5.61;84.19
72128;DHT22;60000;51.030;7.024;2024-03-25T03:46:27;5.56;84.22
72128;DHT22;60000;51.030;7.024;2024-03-25T03:48:52;5.56;84.26
72128;DHT22;60000;51.030;7.024;2024-03-25T03:51:18;5.59;84.13
72128;DHT22;60000;51.030;7.024;2024-03-25T03:53:43;5.62;84.10
72128;DHT22;60000;51.030;7.024;2024-03-25T03:56:08;5.56;84.21
72128;DHT22;60000;51.030;7.024;2024-03-25T03:58:34;5.50;84.27
72128;DHT22;60000;51.030;7.024;2024-03-25T04:01:00;5.48;84.25
72128;DHT22;60000;51.030;7.024;2024-03-25T04:03:26;5.45;84.42
72128;DHT22;60000;51.030;7.024;2024-03-25T04:05:51;5.45;84.50
72128;DHT22;60000;51.030;7.024;2024-03-25T04:08:17;5.43;84.51
72128;DHT22;60000;51.030;7.024;2024-03-25T04:10:43;5.40;84.50
72128;DHT22;60000;51.030;7.024;2024-03-25T04:13:09;5.40;84.63
72128;DHT22;60000;51.030;7.024;2024-03-25T04:15:35;5.35;84.69
72128;DHT22;60000;51.030;7.024;2024-03-25T04:18:01;5.35;84.78
72128;DHT22;60000;51.030;7.024;2024-03-25T04:20:27;5.38;84.90
72128;DHT22;60000;51.030;7.024;2024-03-25T04:22:53;5.34;84.91
72128;DHT22;60000;51.030;7.024;2024-03-25T04:25:19;5.38;84.97
72128;DHT22;60000;51.030;7.024;2024-03-25T04:27:44;5.37;84.96
72128;DHT22;60000;51.030;7.024;2024-03-25T04:30:10;5.34;84.67
72128;DHT22;60000;51.030;7.024;2024-03-25T04:32:37;5.33;84.75
72128;DHT22;60000;51.030;7.024;2024-03-25T04:35:03;5.30;84.64
72128;DHT22;60000;51.030;7.024;2024-03-25T04:37:29;5.24;84.49
72128;DHT22;60000;51.030;7.024;2024-03-25T04:39:55;5.17;84.79
72128;DHT22;60000;51.030;7.024;2024-03-25T04:42:21;5.16;84.71
72128;DHT22;60000;51.030;7.024;2024-03-25T04:44:47;5.10;84.59
72128;DHT22;60000;51.030;7.024;2024-03-25T04:47:13;5.03;84.79
72128;DHT22;60000;51.030;7.024;2024-03-25T04:49:39;4.99;84.91
72128;DHT22;60000;51.030;7.024;2024-03-25T04:52:05;4.94;85.06
72128;DHT22;60000;51.030;7.024;2024-03-25T04:54:30;4.90;85.19
72128;DHT22;60000;51.030;7.024;2024-03-25T04:56:56;4.84;85.21
72128;DHT22;60000;51.030;7.024;2024-03-25T04:59:21;4.79;85.39
72128;DHT22;60000;51.030;7.024;2024-03-25T05:01:47;4.77;85.47
72128;DHT22;60000;51.030;7.024;2024-03-25T05:04:12;4.71;85.55
72128;DHT22;60000;51.030;7.024;2024-03-25T05:06:38;4.66;85.54
72128;DHT22;60000;51.030;7.024;2024-03-25T05:09:03;4.61;85.65
72128;DHT22;60000;51.030;7.024;2024-03-25T05:11:29;4.55;85.63
72128;DHT22;60000;51.030;7.024;2024-03-25T05:13:54;4.48;85.66
72128;DHT22;60000;51.030;7.024;2024-03-25T05:16:19;4.40;85.84
72128;DHT22;60000;51.030;7.024;2024-03-25T05:18:45;4.35;85.99
72128;DHT22;60000;51.030;7.024;2024-03-25T05:21:10;4.30;86.10
72128;DHT22;60000;51.030;7.024;2024-03-25T05:23:35;4.25;86.47
72128;DHT22;60000;51.030;7.024;2024-03-25T05:26:01;4.24;86.62
72128;DHT22;60000;51.030;7.024;2024-03-25T05:28:26;4.17;86.43
72128;DHT22;60000;51.030;7.024;2024-03-25T05:30:51;4.10;86.44
72128;DHT22;60000;51.030;7.024;2024-03-25T05:33:16;4.04;86.63
72128;DHT22;60000;51.030;7.024;2024-03-25T05:35:42;4.01;86.87
72128;DHT22;60000;51.030;7.024;2024-03-25T05:38:07;4.00;87.13
72128;DHT22;60000;51.030;7.024;2024-03-25T05:40:32;3.94;87.01
72128;DHT22;60000;51.030;7.024;2024-03-25T05:42:58;3.89;87.17
72128;DHT22;60000;51.030;7.024;2024-03-25T05:45:23;3.86;87.40
72128;DHT22;60000;51.030;7.024;2024-03-25T05:47:52;3.84;87.39
72128;DHT22;60000;51.030;7.024;2024-03-25T05:50:17;3.79;87.35
72128;DHT22;60000;51.030;7.024;2024-03-25T05:52:42;3.72;87.25
72128;DHT22;60000;51.030;7.024;2024-03-25T05:55:08;3.73;87.71
72128;DHT22;60000;51.030;7.024;2024-03-25T05:57:35;3.70;87.90
72128;DHT22;60000;51.030;7.024;2024-03-25T06:00:01;3.66;87.72
72128;DHT22;60000;51.030;7.024;2024-03-25T06:02:26;3.62;87.83
72128;DHT22;60000;51.030;7.024;2024-03-25T06:04:51;3.62;88.04
72128;DHT22;60000;51.030;7.024;2024-03-25T06:07:16;3.60;88.19
72128;DHT22;60000;51.030;7.024;2024-03-25T06:09:42;3.62;88.28
72128;DHT22;60000;51.030;7.024;2024-03-25T06:12:07;3.62;88.39
72128;DHT22;60000;51.030;7.024;2024-03-25T06:14:33;3.63;88.60
72128;DHT22;60000;51.030;7.024;2024-03-25T06:16:59;3.66;88.76
72128;DHT22;60000;51.030;7.024;2024-03-25T06:19:24;3.66;88.96
72128;DHT22;60000;51.030;7.024;2024-03-25T06:21:49;3.72;89.12
72128;DHT22;60000;51.030;7.024;2024-03-25T06:24:15;3.73;89.03
72128;DHT22;60000;51.030;7.024;2024-03-25T06:26:40;3.72;89.04
72128;DHT22;60000;51.030;7.024;2024-03-25T06:29:05;3.74;89.17
72128;DHT22;60000;51.030;7.024;2024-03-25T06:31:31;3.76;89.27
72128;DHT22;60000;51.030;7.024;2024-03-25T06:34:14;3.80;89.43
72128;DHT22;60000;51.030;7.024;2024-03-25T06:36:45;3.87;89.63
72128;DHT22;60000;51.030;7.024;2024-03-25T06:39:10;3.91;89.58
72128;DHT22;60000;51.030;7.024;2024-03-25T06:41:36;4.00;89.70
72128;DHT22;60000;51.030;7.024;2024-03-25T06:44:01;4.07;89.68
72128;DHT22;60000;51.030;7.024;2024-03-25T06:46:27;4.15;89.63
72128;DHT22;60000;51.030;7.024;2024-03-25T06:48:52;4.25;89.68
72128;DHT22;60000;51.030;7.024;2024-03-25T06:51:18;4.35;89.57
72128;DHT22;60000;51.030;7.024;2024-03-25T06:53:43;4.37;89.43
72128;DHT22;60000;51.030;7.024;2024-03-25T06:56:08;4.45;89.18
72128;DHT22;60000;51.030;7.024;2024-03-25T06:58:34;4.49;88.96
72128;DHT22;60000;51.030;7.024;2024-03-25T07:01:05;4.54;88.80
72128;DHT22;60000;51.030;7.024;2024-03-25T07:03:31;4.61;88.76
72128;DHT22;60000;51.030;7.024;2024-03-25T07:05:56;4.63;88.69
72128;DHT22;60000;51.030;7.024;2024-03-25T07:08:22;4.69;88.37
72128;DHT22;60000;51.030;7.024;2024-03-25T07:10:47;4.79;88.37
72128;DHT22;60000;51.030;7.024;2024-03-25T07:13:13;4.84;88.25
72128;DHT22;60000;51.030;7.024;2024-03-25T07:15:39;5.04;88.36
72128;DHT22;60000;51.030;7.024;2024-03-25T07:18:05;5.40;88.79
72128;DHT22;60000;51.030;7.024;2024-03-25T07:20:31;5.62;86.40
72128;DHT22;60000;51.030;7.024;2024-03-25T07:22:57;6.01;87.70
72128;DHT22;60000;51.030;7.024;2024-03-25T07:25:23;6.43;87.50
72128;DHT22;60000;51.030;7.024;2024-03-25T07:27:48;6.87;87.00
72128;DHT22;60000;51.030;7.024;2024-03-25T07:30:14;7.16;84.92
72128;DHT22;60000;51.030;7.024;2024-03-25T07:32:39;7.40;83.32
72128;DHT22;60000;51.030;7.024;2024-03-25T07:35:05;7.64;81.47
72128;DHT22;60000;51.030;7.024;2024-03-25T07:37:30;7.71;79.23
72128;DHT22;60000;51.030;7.024;2024-03-25T07:39:56;7.99;78.99
72128;DHT22;60000;51.030;7.024;2024-03-25T07:42:21;8.13;77.93
72128;DHT22;60000;51.030;7.024;2024-03-25T07:44:46;8.43;77.74
72128;DHT22;60000;51.030;7.024;2024-03-25T07:47:12;8.71;76.76
72128;DHT22;60000;51.030;7.024;2024-03-25T07:49:37;9.07;75.40
72128;DHT22;60000;51.030;7.024;2024-03-25T07:52:05;9.36;75.59
72128;DHT22;60000;51.030;7.024;2024-03-25T07:54:30;9.75;74.84
72128;DHT22;60000;51.030;7.024;2024-03-25T07:56:56;10.07;73.55
72128;DHT22;60000;51.030;7.024;2024-03-25T07:59:21;10.38;72.12
72128;DHT22;60000;51.030;7.024;2024-03-25T08:01:46;10.40;69.38
72128;DHT22;60000;51.030;7.024;2024-03-25T08:04:12;10.59;69.00
72128;DHT22;60000;51.030;7.024;2024-03-25T08:06:38;10.72;68.38
72128;DHT22;60000;51.030;7.024;2024-03-25T08:09:03;10.86;67.89
72128;DHT22;60000;51.030;7.024;2024-03-25T08:11:30;11.09;67.21
72128;DHT22;60000;51.030;7.024;2024-03-25T08:13:56;11.23;66.61
72128;DHT22;60000;51.030;7.024;2024-03-25T08:16:21;11.09;65.10
72128;DHT22;60000;51.030;7.024;2024-03-25T08:18:47;11.16;65.03
72128;DHT22;60000;51.030;7.024;2024-03-25T08:21:12;11.50;65.13
72128;DHT22;60000;51.030;7.024;2024-03-25T08:23:37;11.67;64.96
72128;DHT22;60000;51.030;7.024;2024-03-25T08:26:02;11.67;63.74
72128;DHT22;60000;51.030;7.024;2024-03-25T08:28:28;11.98;64.65
72128;DHT22;60000;51.030;7.024;2024-03-25T08:30:53;11.98;62.21
72128;DHT22;60000;51.030;7.024;2024-03-25T08:33:18;11.94;61.86
72128;DHT22;60000;51.030;7.024;2024-03-25T08:35:44;12.25;62.93
72128;DHT22;60000;51.030;7.024;2024-03-25T08:38:09;11.99;60.02
72128;DHT22;60000;51.030;7.024;2024-03-25T08:40:34;11.81;61.70
72128;DHT22;60000;51.030;7.024;2024-03-25T08:43:01;11.94;62.52
72128;DHT22;60000;51.030;7.024;2024-03-25T08:45:26;12.22;61.10
72128;DHT22;60000;51.030;7.024;2024-03-25T08:47:51;12.24;59.57
72128;DHT22;60000;51.030;7.024;2024-03-25T08:50:17;12.40;59.40
72128;DHT22;60000;51.030;7.024;2024-03-25T08:52:43;11.97;56.77
72128;DHT22;60000;51.030;7.024;2024-03-25T08:55:08;12.02;57.56
72128;DHT22;60000;51.030;7.024;2024-03-25T08:57:34;12.39;59.29
72128;DHT22;60000;51.030;7.024;2024-03-25T08:59:59;12.52;57.82
72128;DHT22;60000;51.030;7.024;2024-03-25T09:02:24;12.81;58.37
72128;DHT22;60000;51.030;7.024;2024-03-25T09:04:50;13.01;56.67
72128;DHT22;60000;51.030;7.024;2024-03-25T09:07:15;13.35;57.57
72128;DHT22;60000;51.030;7.024;2024-03-25T09:09:40;13.44;56.12
72128;DHT22;60000;51.030;7.024;2024-03-25T09:12:24;13.62;55.23
72128;DHT22;60000;51.030;7.024;2024-03-25T09:14:49;13.80;53.78
72128;DHT22;60000;51.030;7.024;2024-03-25T09:17:16;13.72;52.64
72128;DHT22;60000;51.030;7.024;2024-03-25T09:19:42;14.00;52.74
72128;DHT22;60000;51.030;7.024;2024-03-25T09:22:07;13.67;49.84
72128;DHT22;60000;51.030;7.024;2024-03-25T09:24:32;13.72;50.84
72128;DHT22;60000;51.030;7.024;2024-03-25T09:26:58;13.76;48.91
72128;DHT22;60000;51.030;7.024;2024-03-25T09:29:23;13.66;49.87
72128;DHT22;60000;51.030;7.024;2024-03-25T09:31:48;13.56;49.87
72128;DHT22;60000;51.030;7.024;2024-03-25T09:34:14;13.65;49.93
72128;DHT22;60000;51.030;7.024;2024-03-25T09:36:39;13.67;49.66
72128;DHT22;60000;51.030;7.024;2024-03-25T09:39:05;13.99;51.09
72128;DHT22;60000;51.030;7.024;2024-03-25T09:41:31;13.72;48.00
72128;DHT22;60000;51.030;7.024;2024-03-25T09:44:00;13.80;49.57
72128;DHT22;60000;51.030;7.024;2024-03-25T09:46:26;14.07;49.49
72128;DHT22;60000;51.030;7.024;2024-03-25T09:48:54;13.75;48.50
72128;DHT22;60000;51.030;7.024;2024-03-25T09:51:20;13.91;49.07
72128;DHT22;60000;51.030;7.024;2024-03-25T09:53:46;14.37;51.93
72128;DHT22;60000;51.030;7.024;2024-03-25T09:56:14;14.68;50.04
72128;DHT22;60000;51.030;7.024;2024-03-25T09:58:40;14.55;48.57
72128;DHT22;60000;51.030;7.024;2024-03-25T10:01:07;14.44;48.09
72128;DHT22;60000;51.030;7.024;2024-03-25T10:03:32;14.34;48.24
72128;DHT22;60000;51.030;7.024;2024-03-25T10:05:57;14.40;49.05
72128;DHT22;60000;51.030;7.024;2024-03-25T10:08:23;14.40;47.29
72128;DHT22;60000;51.030;7.024;2024-03-25T10:10:51;14.10;48.54
72128;DHT22;60000;51.030;7.024;2024-03-25T10:13:16;13.69;48.07
72128;DHT22;60000;51.030;7.024;2024-03-25T10:15:41;13.62;49.65
72128;DHT22;60000;51.030;7.024;2024-03-25T10:18:07;13.70;48.93
72128;DHT22;60000;51.030;7.024;2024-03-25T10:20:33;13.65;47.35
72128;DHT22;60000;51.030;7.024;2024-03-25T10:23:02;14.03;49.92
72128;DHT22;60000;51.030;7.024;2024-03-25T10:25:30;14.24;49.38
72128;DHT22;60000;51.030;7.024;2024-03-25T10:28:00;14.54;48.78
72128;DHT22;60000;51.030;7.024;2024-03-25T10:30:26;14.45;46.40
72128;DHT22;60000;51.030;7.024;2024-03-25T10:33:02;14.91;48.59
72128;DHT22;60000;51.030;7.024;2024-03-25T10:35:30;15.07;47.65
72128;DHT22;60000;51.030;7.024;2024-03-25T10:38:00;15.22;46.19
72128;DHT22;60000;51.030;7.024;2024-03-25T10:40:39;15.23;45.53
72128;DHT22;60000;51.030;7.024;2024-03-25T10:43:08;15.37;45.02
72128;DHT22;60000;51.030;7.024;2024-03-25T10:45:38;15.27;44.23
72128;DHT22;60000;51.030;7.024;2024-03-25T10:48:14;15.60;46.18
72128;DHT22;60000;51.030;7.024;2024-03-25T10:50:40;15.72;44.73
72128;DHT22;60000;51.030;7.024;2024-03-25T10:53:08;15.90;44.48
72128;DHT22;60000;51.030;7.024;2024-03-25T10:55:34;16.06;42.72
72128;DHT22;60000;51.030;7.024;2024-03-25T10:58:01;15.94;42.27
72128;DHT22;60000;51.030;7.024;2024-03-25T11:00:28;16.09;43.13
72128;DHT22;60000;51.030;7.024;2024-03-25T11:02:54;16.26;42.38
72128;DHT22;60000;51.030;7.024;2024-03-25T11:05:20;16.67;43.91
72128;DHT22;60000;51.030;7.024;2024-03-25T11:07:45;16.87;41.90
72128;DHT22;60000;51.030;7.024;2024-03-25T11:10:11;16.91;41.69
72128;DHT22;60000;51.030;7.024;2024-03-25T11:12:38;16.88;39.70
72128;DHT22;60000;51.030;7.024;2024-03-25T11:15:05;17.06;41.08
72128;DHT22;60000;51.030;7.024;2024-03-25T11:17:34;17.04;38.30
72128;DHT22;60000;51.030;7.024;2024-03-25T11:20:10;16.63;38.29
72128;DHT22;60000;51.030;7.024;2024-03-25T11:22:36;16.59;40.00
72128;DHT22;60000;51.030;7.024;2024-03-25T11:25:05;16.57;39.95
72128;DHT22;60000;51.030;7.024;2024-03-25T11:27:33;16.38;39.11
72128;DHT22;60000;51.030;7.024;2024-03-25T11:29:59;16.34;39.55
72128;DHT22;60000;51.030;7.024;2024-03-25T11:32:26;16.56;39.44
72128;DHT22;60000;51.030;7.024;2024-03-25T11:34:52;16.64;38.86
72128;DHT22;60000;51.030;7.024;2024-03-25T11:37:17;16.77;38.57
72128;DHT22;60000;51.030;7.024;2024-03-25T11:39:43;16.94;37.48
72128;DHT22;60000;51.030;7.024;2024-03-25T11:42:09;17.06;37.84
72128;DHT22;60000;51.030;7.024;2024-03-25T11:44:37;16.71;36.72
72128;DHT22;60000;51.030;7.024;2024-03-25T11:47:03;16.12;37.12
72128;DHT22;60000;51.030;7.024;2024-03-25T11:49:30;16.02;38.82
72128;DHT22;60000;51.030;7.024;2024-03-25T11:51:55;15.65;37.95
72128;DHT22;60000;51.030;7.024;2024-03-25T11:54:21;15.57;38.58
72128;DHT22;60000;51.030;7.024;2024-03-25T11:56:46;15.31;37.29
72128;DHT22;60000;51.030;7.024;2024-03-25T11:59:12;15.49;38.70
72128;DHT22;60000;51.030;7.024;2024-03-25T12:01:38;15.54;38.51
72128;DHT22;60000;51.030;7.024;2024-03-25T12:04:15;15.44;38.00
72128;DHT22;60000;51.030;7.024;2024-03-25T12:06:41;15.62;39.16
72128;DHT22;60000;51.030;7.024;2024-03-25T12:09:06;15.78;37.81
72128;DHT22;60000;51.030;7.024;2024-03-25T12:11:50;15.72;37.56
72128;DHT22;60000;51.030;7.024;2024-03-25T12:14:16;15.68;39.21
72128;DHT22;60000;51.030;7.024;2024-03-25T12:16:42;15.90;39.37
72128;DHT22;60000;51.030;7.024;2024-03-25T12:19:07;15.80;38.40
72128;DHT22;60000;51.030;7.024;2024-03-25T12:21:33;15.53;38.37
72128;DHT22;60000;51.030;7.024;2024-03-25T12:23:59;15.55;39.75
72128;DHT22;60000;51.030;7.024;2024-03-25T12:26:24;15.39;40.11
72128;DHT22;60000;51.030;7.024;2024-03-25T12:28:50;15.34;38.90
72128;DHT22;60000;51.030;7.024;2024-03-25T12:31:15;15.33;38.90
72128;DHT22;60000;51.030;7.024;2024-03-25T12:33:42;15.22;37.78
72128;DHT22;60000;51.030;7.024;2024-03-25T12:36:07;15.19;38.34
72128;DHT22;60000;51.030;7.024;2024-03-25T12:38:33;15.04;37.52
72128;DHT22;60000;51.030;7.024;2024-03-25T12:41:07;15.04;38.13
72128;DHT22;60000;51.030;7.024;2024-03-25T12:43:33;15.18;38.91
72128;DHT22;60000;51.030;7.024;2024-03-25T12:45:59;15.34;39.68
72128;DHT22;60000;51.030;7.024;2024-03-25T12:48:25;15.49;38.24
72128;DHT22;60000;51.030;7.024;2024-03-25T12:50:51;15.51;37.49
72128;DHT22;60000;51.030;7.024;2024-03-25T12:53:18;15.33;37.57
72128;DHT22;60000;51.030;7.024;2024-03-25T12:55:44;15.31;38.82
72128;DHT22;60000;51.030;7.024;2024-03-25T12:58:10;15.24;38.53
72128;DHT22;60000;51.030;7.024;2024-03-25T13:00:36;15.18;38.40
72128;DHT22;60000;51.030;7.024;2024-03-25T13:03:01;15.36;39.39
72128;DHT22;60000;51.030;7.024;2024-03-25T13:05:27;15.49;38.57
72128;DHT22;60000;51.030;7.024;2024-03-25T13:07:53;15.43;37.35
72128;DHT22;60000;51.030;7.024;2024-03-25T13:10:19;15.34;38.77
72128;DHT22;60000;51.030;7.024;2024-03-25T13:12:44;15.26;37.60
72128;DHT22;60000;51.030;7.024;2024-03-25T13:15:09;15.29;38.50
72128;DHT22;60000;51.030;7.024;2024-03-25T13:17:35;15.23;38.92
72128;DHT22;60000;51.030;7.024;2024-03-25T13:20:00;15.13;37.91
72128;DHT22;60000;51.030;7.024;2024-03-25T13:22:25;15.30;39.51
72128;DHT22;60000;51.030;7.024;2024-03-25T13:24:51;15.24;37.46
72128;DHT22;60000;51.030;7.024;2024-03-25T13:27:16;15.14;36.81
72128;DHT22;60000;51.030;7.024;2024-03-25T13:29:41;15.10;38.07
72128;DHT22;60000;51.030;7.024;2024-03-25T13:32:06;14.93;37.40
72128;DHT22;60000;51.030;7.024;2024-03-25T13:34:32;14.91;38.85
72128;DHT22;60000;51.030;7.024;2024-03-25T13:36:57;14.91;37.89
72128;DHT22;60000;51.030;7.024;2024-03-25T13:39:22;15.02;37.62
72128;DHT22;60000;51.030;7.024;2024-03-25T13:41:48;15.20;38.05
72128;DHT22;60000;51.030;7.024;2024-03-25T13:44:13;15.31;37.68
72128;DHT22;60000;51.030;7.024;2024-03-25T13:46:38;15.20;35.71
72128;DHT22;60000;51.030;7.024;2024-03-25T13:49:04;15.18;37.34
72128;DHT22;60000;51.030;7.024;2024-03-25T13:51:30;15.22;37.59
72128;DHT22;60000;51.030;7.024;2024-03-25T13:53:55;15.29;37.16
72128;DHT22;60000;51.030;7.024;2024-03-25T13:56:20;15.33;37.49
72128;DHT22;60000;51.030;7.024;2024-03-25T13:58:46;15.36;37.16
72128;DHT22;60000;51.030;7.024;2024-03-25T14:01:12;15.34;37.38
72128;DHT22;60000;51.030;7.024;2024-03-25T14:03:37;15.40;38.31
72128;DHT22;60000;51.030;7.024;2024-03-25T14:06:02;15.27;36.57
72128;DHT22;60000;51.030;7.024;2024-03-25T14:08:28;15.09;36.16
72128;DHT22;60000;51.030;7.024;2024-03-25T14:11:01;14.92;36.64
72128;DHT22;60000;51.030;7.024;2024-03-25T14:13:27;14.99;37.95
72128;DHT22;60000;51.030;7.024;2024-03-25T14:15:54;14.98;36.47
72128;DHT22;60000;51.030;7.024;2024-03-25T14:18:20;15.02;37.02
72128;DHT22;60000;51.030;7.024;2024-03-25T14:20:45;14.91;37.00
72128;DHT22;60000;51.030;7.024;2024-03-25T14:23:11;14.81;38.26
72128;DHT22;60000;51.030;7.024;2024-03-25T14:25:38;14.81;37.23
72128;DHT22;60000;51.030;7.024;2024-03-25T14:28:08;14.83;37.21
72128;DHT22;60000;51.030;7.024;2024-03-25T14:30:35;14.76;37.37
72128;DHT22;60000;51.030;7.024;2024-03-25T14:33:06;14.76;38.01
72128;DHT22;60000;51.030;7.024;2024-03-25T14:35:32;14.75;37.28
72128;DHT22;60000;51.030;7.024;2024-03-25T14:37:58;14.67;37.51
72128;DHT22;60000;51.030;7.024;2024-03-25T14:40:23;14.65;37.08
72128;DHT22;60000;51.030;7.024;2024-03-25T14:42:48;14.67;38.39
72128;DHT22;60000;51.030;7.024;2024-03-25T14:45:13;14.72;38.07
72128;DHT22;60000;51.030;7.024;2024-03-25T14:47:39;14.81;38.07
72128;DHT22;60000;51.030;7.024;2024-03-25T14:50:04;14.78;36.54
72128;DHT22;60000;51.030;7.024;2024-03-25T14:52:30;14.81;36.96
72128;DHT22;60000;51.030;7.024;2024-03-25T14:54:57;14.89;37.06
72128;DHT22;60000;51.030;7.024;2024-03-25T14:57:22;14.78;34.80
72128;DHT22;60000;51.030;7.024;2024-03-25T14:59:47;14.72;35.18
72128;DHT22;60000;51.030;7.024;2024-03-25T15:02:13;14.76;36.65
72128;DHT22;60000;51.030;7.024;2024-03-25T15:04:39;14.83;36.64
72128;DHT22;60000;51.030;7.024;2024-03-25T15:07:12;14.86;36.14
72128;DHT22;60000;51.030;7.024;2024-03-25T15:09:38;14.83;36.86
72128;DHT22;60000;51.030;7.024;2024-03-25T15:12:04;14.85;37.26
72128;DHT22;60000;51.030;7.024;2024-03-25T15:14:29;14.83;37.42
72128;DHT22;60000;51.030;7.024;2024-03-25T15:16:58;14.79;37.03
72128;DHT22;60000;51.030;7.024;2024-03-25T15:19:25;14.82;37.11
72128;DHT22;60000;51.030;7.024;2024-03-25T15:21:50;14.79;36.86
72128;DHT22;60000;51.030;7.024;2024-03-25T15:24:15;14.73;36.74
72128;DHT22;60000;51.030;7.024;2024-03-25T15:26:40;14.83;38.25
72128;DHT22;60000;51.030;7.024;2024-03-25T15:29:06;14.89;37.30